Time;durP1;ratioP1;P1;durP2;ratioP2;P2;SDS_P1;SDS_P2;PMS_P1;PMS_P2;Temp;Humidity;BMP_temperature;BMP_pressure;BME280_temperature;BME280_humidity;BME280_pressure;Samples;Min_cycle;Max_cycle;Signal;HPM_P1;HPM_P2
2021/05/15 00:01:56;;;;;;;30.80;11.13;;;29.80;78.30;;;;;;5086150;28;20204;-56
2021/05/15 00:04:23;;;;;;;32.90;10.70;;;29.70;78.20;;;;;;5086246;28;20032;-58
2021/05/15 00:06:50;;;;;;;25.05;9.40;;;29.60;78.70;;;;;;5068483;28;20088;-58
2021/05/15 00:09:16;;;;;;;24.13;8.10;;;29.60;79.20;;;;;;5086053;28;20039;-59
2021/05/15 00:11:43;;;;;;;34.58;6.90;;;29.50;79.20;;;;;;5085484;28;20021;-50
2021/05/15 00:14:10;;;;;;;30.25;6.88;;;29.40;79.20;;;;;;5085830;28;20028;-50
2021/05/15 00:16:37;;;;;;;26.30;6.88;;;29.40;79.60;;;;;;5085562;28;20012;-49
2021/05/15 00:19:03;;;;;;;22.10;5.43;;;29.20;80.10;;;;;;5085925;28;20055;-57
2021/05/15 00:21:30;;;;;;;20.40;5.60;;;29.20;80.00;;;;;;5085717;28;20083;-52
2021/05/15 00:23:58;;;;;;;22.85;5.65;;;29.10;80.20;;;;;;5085666;28;20204;-59
2021/05/15 00:26:27;;;;;;;26.95;5.43;;;29.10;80.10;;;;;;5085710;28;20028;-54
2021/05/15 00:28:54;;;;;;;22.58;5.00;;;29.10;79.80;;;;;;5085328;28;20301;-58
2021/05/15 00:31:21;;;;;;;23.13;4.97;;;29.10;79.90;;;;;;5085236;28;20202;-55
2021/05/15 00:33:48;;;;;;;17.27;5.00;;;29.00;80.40;;;;;;5085541;28;20032;-53
2021/05/15 00:36:16;;;;;;;17.50;4.38;;;29.00;80.60;;;;;;5085250;28;20048;-52
2021/05/15 00:38:42;;;;;;;21.67;4.90;;;29.10;80.70;;;;;;5066815;28;20054;-54
2021/05/15 00:41:10;;;;;;;24.90;5.20;;;29.20;80.60;;;;;;5085129;28;20020;-51
2021/05/15 00:43:44;;;;;;;25.15;5.20;;;29.10;80.30;;;;;;5084928;28;20100;-54
2021/05/15 00:46:12;;;;;;;22.20;4.55;;;29.20;80.20;;;;;;5084986;28;20020;-53
2021/05/15 00:48:39;;;;;;;21.45;4.90;;;29.10;80.30;;;;;;5085228;28;20036;-57
2021/05/15 00:51:06;;;;;;;21.38;4.72;;;29.10;80.30;;;;;;5084171;28;20220;-60
2021/05/15 00:53:32;;;;;;;19.88;5.07;;;29.00;80.00;;;;;;5084878;28;20082;-51
2021/05/15 00:56:01;;;;;;;23.83;4.43;;;29.00;80.10;;;;;;5084865;28;20061;-55
2021/05/15 00:58:28;;;;;;;18.20;3.75;;;29.00;80.10;;;;;;5085050;28;20027;-57
2021/05/15 01:00:57;;;;;;;22.60;4.53;;;29.00;80.00;;;;;;5067472;28;20051;-55
2021/05/15 01:03:23;;;;;;;15.85;4.43;;;29.10;79.40;;;;;;5085000;28;20080;-53
2021/05/15 01:05:51;;;;;;;17.08;4.50;;;29.20;79.20;;;;;;5084687;28;20032;-52
2021/05/15 01:08:19;;;;;;;19.40;5.40;;;29.20;79.00;;;;;;5083354;28;20024;-51
2021/05/15 01:10:47;;;;;;;18.80;4.72;;;29.30;79.00;;;;;;5055974;28;20367;-53
2021/05/15 01:13:13;;;;;;;20.90;4.95;;;29.30;78.80;;;;;;5063918;28;20036;-56
2021/05/15 01:15:40;;;;;;;17.80;4.63;;;29.30;78.50;;;;;;5060556;28;20016;-56
2021/05/15 01:18:09;;;;;;;24.40;5.28;;;29.30;78.50;;;;;;5064266;28;20013;-51
2021/05/15 01:20:39;;;;;;;22.30;4.85;;;29.30;78.50;;;;;;5064139;28;20029;-48
2021/05/15 01:23:05;;;;;;;22.17;4.65;;;29.30;78.00;;;;;;5063855;28;20281;-48
2021/05/15 01:25:32;;;;;;;20.42;5.22;;;29.30;78.40;;;;;;5063984;28;20024;-55
2021/05/15 01:27:59;;;;;;;18.25;5.70;;;29.30;78.70;;;;;;5045430;28;20041;-58
2021/05/15 01:30:25;;;;;;;23.63;5.88;;;29.20;79.10;;;;;;5070535;28;20049;-59
2021/05/15 01:32:54;;;;;;;23.30;5.80;;;29.20;79.20;;;;;;5057752;28;20029;-53
2021/05/15 01:35:24;;;;;;;25.13;7.53;;;29.10;79.30;;;;;;5054576;28;20023;-51
2021/05/15 01:37:57;;;;;;;20.35;7.53;;;29.10;79.90;;;;;;5056577;28;20017;-55
2021/05/15 01:40:27;;;;;;;23.70;6.60;;;29.00;79.80;;;;;;5049483;28;20045;-59
2021/05/15 01:42:53;;;;;;;32.17;6.30;;;29.00;80.10;;;;;;5043896;28;20029;-55
2021/05/15 01:45:20;;;;;;;20.40;6.68;;;29.00;80.30;;;;;;5044448;28;20029;-55
2021/05/15 01:47:50;;;;;;;24.27;6.53;;;29.00;80.30;;;;;;5037419;28;20217;-56
2021/05/15 01:50:17;;;;;;;27.75;6.80;;;29.00;80.30;;;;;;5026307;28;20025;-57
2021/05/15 01:52:48;;;;;;;20.65;5.85;;;29.00;80.40;;;;;;5044131;28;20067;-50
2021/05/15 01:55:23;;;;;;;25.52;4.95;;;28.90;80.00;;;;;;5044330;28;20021;-57
2021/05/15 01:57:51;;;;;;;23.10;5.45;;;29.00;79.80;;;;;;5043375;28;20068;-54
2021/05/15 02:00:38;;;;;;;27.08;5.78;;;29.00;79.90;;;;;;5042896;28;20033;-53
2021/05/15 02:03:06;;;;;;;20.98;5.13;;;29.00;80.20;;;;;;5019933;28;20037;-53
2021/05/15 02:05:32;;;;;;;19.55;4.82;;;29.00;80.10;;;;;;5005252;28;20049;-57
2021/05/15 02:07:59;;;;;;;21.70;4.70;;;29.00;80.10;;;;;;5022067;28;20026;-56
2021/05/15 02:10:27;;;;;;;12.98;4.25;;;29.00;80.30;;;;;;5021765;28;20222;-53
2021/05/15 02:12:56;;;;;;;21.75;5.20;;;29.00;80.10;;;;;;5022221;28;20021;-51
2021/05/15 02:15:23;;;;;;;18.45;5.57;;;29.00;80.20;;;;;;5022107;28;20203;-52
2021/05/15 02:17:52;;;;;;;22.42;5.35;;;29.00;80.10;;;;;;5005591;28;20051;-53
2021/05/15 02:20:19;;;;;;;21.23;5.72;;;29.00;80.20;;;;;;5022102;28;20046;-51
2021/05/15 02:22:45;;;;;;;24.02;5.85;;;29.00;80.30;;;;;;5005805;28;20022;-54
2021/05/15 02:25:12;;;;;;;25.98;6.28;;;28.90;80.00;;;;;;5005549;28;20053;-52
2021/05/15 02:27:39;;;;;;;19.77;5.55;;;28.90;80.20;;;;;;5022118;28;20089;-52
2021/05/15 02:30:07;;;;;;;24.25;6.20;;;28.90;80.20;;;;;;5032482;28;20053;-53
2021/05/15 02:32:36;;;;;;;18.70;5.90;;;28.90;80.10;;;;;;5025032;28;20112;-53
2021/05/15 02:35:07;;;;;;;22.23;5.88;;;28.90;80.20;;;;;;5025444;28;20025;-55
2021/05/15 02:37:34;;;;;;;18.85;5.53;;;28.90;80.20;;;;;;5041533;28;20022;-52
2021/05/15 02:40:01;;;;;;;22.00;5.05;;;28.80;80.30;;;;;;5042058;28;20318;-51
2021/05/15 02:42:27;;;;;;;21.77;4.95;;;28.80;80.40;;;;;;5058787;28;20017;-51
2021/05/15 02:44:54;;;;;;;18.63;4.60;;;28.80;80.30;;;;;;5058971;28;20029;-51
2021/05/15 02:47:23;;;;;;;19.65;5.00;;;28.80;80.30;;;;;;5043202;28;20187;-52
2021/05/15 02:49:50;;;;;;;17.60;4.82;;;28.80;80.10;;;;;;5059152;28;20033;-54
2021/05/15 02:52:17;;;;;;;17.45;5.20;;;28.80;80.40;;;;;;5043310;28;20025;-59
2021/05/15 02:54:45;;;;;;;16.25;5.32;;;28.80;80.70;;;;;;5043585;28;20037;-57
2021/05/15 02:57:14;;;;;;;20.30;6.40;;;28.80;80.70;;;;;;5058206;28;20068;-55
2021/05/15 02:59:41;;;;;;;24.58;7.70;;;28.70;80.60;;;;;;5043688;28;20022;-61
2021/05/15 03:02:08;;;;;;;26.15;7.32;;;28.70;80.80;;;;;;5043217;28;20085;-53
2021/05/15 03:04:35;;;;;;;19.70;5.97;;;28.70;80.90;;;;;;5058885;28;20330;-56
2021/05/15 03:07:01;;;;;;;19.88;5.80;;;28.70;80.50;;;;;;5059040;28;20052;-54
2021/05/15 03:09:28;;;;;;;20.25;5.88;;;28.70;80.30;;;;;;5043285;28;20021;-55
2021/05/15 03:11:55;;;;;;;14.88;5.07;;;28.70;80.10;;;;;;5043014;28;20020;-51
2021/05/15 03:14:21;;;;;;;17.90;4.95;;;28.70;80.10;;;;;;5045210;28;20294;-57
2021/05/15 03:16:48;;;;;;;21.80;6.90;;;28.70;80.10;;;;;;5046685;28;20037;-55
2021/05/15 03:19:15;;;;;;;33.08;12.23;;;28.70;80.10;;;;;;5062499;28;20109;-59
2021/05/15 03:21:42;;;;;;;42.60;19.00;;;28.60;79.70;;;;;;5046631;28;20032;-53
2021/05/15 03:24:08;;;;;;;44.70;22.67;;;28.60;79.80;;;;;;5046433;28;20033;-53
2021/05/15 03:26:35;;;;;;;46.67;19.17;;;28.70;79.80;;;;;;5046532;28;20021;-54
2021/05/15 03:29:02;;;;;;;42.78;16.23;;;28.60;79.50;;;;;;5048476;28;20087;-54
2021/05/15 03:31:29;;;;;;;30.65;11.57;;;28.60;79.60;;;;;;5066264;28;20095;-54
2021/05/15 03:33:55;;;;;;;27.83;10.70;;;28.50;79.50;;;;;;5066564;28;20021;-57
2021/05/15 03:36:23;;;;;;;20.25;8.50;;;28.50;79.40;;;;;;5066354;28;20021;-53
2021/05/15 03:38:49;;;;;;;20.08;7.13;;;28.50;79.90;;;;;;5066403;28;20059;-55
2021/05/15 03:41:16;;;;;;;20.90;6.50;;;28.60;79.50;;;;;;5066288;28;20032;-56
2021/05/15 03:43:43;;;;;;;19.35;5.75;;;28.50;79.40;;;;;;5066359;28;20025;-55
2021/05/15 03:46:10;;;;;;;24.17;5.90;;;28.50;79.60;;;;;;5065986;28;20217;-50
2021/05/15 03:48:36;;;;;;;18.80;5.28;;;28.50;79.70;;;;;;5066222;28;20096;-53
2021/05/15 03:51:03;;;;;;;15.90;4.47;;;28.50;79.70;;;;;;5066129;28;20067;-54
2021/05/15 03:53:30;;;;;;;17.63;4.97;;;28.50;79.90;;;;;;5066054;28;20245;-57
2021/05/15 03:55:56;;;;;;;16.98;4.13;;;28.40;79.80;;;;;;5066010;28;20020;-53
2021/05/15 03:58:23;;;;;;;16.75;4.95;;;28.40;79.80;;;;;;5066083;28;20017;-52
2021/05/15 04:00:49;;;;;;;22.73;4.88;;;28.40;79.80;;;;;;5065943;28;20025;-55
2021/05/15 04:03:16;;;;;;;17.20;4.65;;;28.40;79.80;;;;;;5065884;28;20033;-57
2021/05/15 04:05:43;;;;;;;16.23;4.38;;;28.40;79.70;;;;;;5065860;28;20279;-53
2021/05/15 04:08:09;;;;;;;14.20;3.80;;;28.40;79.60;;;;;;5065889;28;20048;-58
2021/05/15 04:10:37;;;;;;;20.15;4.20;;;28.40;79.50;;;;;;5066111;28;20239;-55
2021/05/15 04:16:01;;;;;;;17.48;4.18;;;28.40;79.50;;;;;;5044663;28;20082;-55
2021/05/15 04:18:30;;;;;;;18.25;4.53;;;28.30;79.40;;;;;;5065740;28;20027;-56
2021/05/15 04:20:57;;;;;;;13.68;3.97;;;28.30;79.40;;;;;;5065456;28;20029;-55
2021/05/15 04:23:24;;;;;;;16.42;4.38;;;28.30;79.40;;;;;;5065637;28;20204;-53
2021/05/15 04:25:51;;;;;;;17.30;3.67;;;28.30;79.30;;;;;;5065398;28;20092;-54
2021/05/15 04:28:18;;;;;;;13.45;4.03;;;28.30;79.40;;;;;;5065338;28;20032;-54
2021/05/15 04:30:45;;;;;;;14.60;3.33;;;28.30;79.30;;;;;;5065379;28;20040;-53
2021/05/15 04:33:11;;;;;;;12.20;3.78;;;28.30;79.40;;;;;;5065477;28;20328;-55
2021/05/15 04:35:38;;;;;;;21.95;4.53;;;28.30;79.30;;;;;;5065087;28;20029;-55
2021/05/15 04:38:06;;;;;;;13.70;4.20;;;28.30;79.50;;;;;;5065294;28;20017;-53
2021/05/15 04:40:34;;;;;;;18.50;3.80;;;28.30;79.70;;;;;;5065577;28;20190;-51
2021/05/15 04:43:01;;;;;;;17.02;4.07;;;28.20;79.50;;;;;;5064988;28;20020;-54
2021/05/15 04:45:30;;;;;;;17.60;3.63;;;28.20;79.80;;;;;;5065719;28;20029;-50
2021/05/15 04:47:57;;;;;;;17.42;3.80;;;28.20;80.10;;;;;;5065078;28;20021;-53
2021/05/15 04:50:24;;;;;;;16.27;4.45;;;28.20;80.20;;;;;;5065362;28;20082;-53
2021/05/15 04:52:51;;;;;;;14.77;3.85;;;28.20;80.00;;;;;;5065012;28;20017;-53
2021/05/15 04:55:19;;;;;;;15.60;3.70;;;28.20;80.00;;;;;;5065303;28;20047;-56
2021/05/15 04:57:46;;;;;;;15.20;3.75;;;28.20;80.00;;;;;;5064802;28;20145;-50
2021/05/15 05:00:13;;;;;;;12.82;4.07;;;28.20;80.00;;;;;;5065260;28;20313;-56
2021/05/15 05:02:40;;;;;;;16.83;4.47;;;28.20;80.40;;;;;;5064898;28;20213;-52
2021/05/15 05:05:08;;;;;;;17.00;3.85;;;28.20;80.40;;;;;;5064995;28;20049;-57
2021/05/15 05:07:35;;;;;;;17.98;3.97;;;28.20;80.50;;;;;;5065060;28;20024;-51
2021/05/15 05:10:01;;;;;;;14.30;4.10;;;28.20;80.60;;;;;;5065202;28;20032;-52
2021/05/15 05:12:28;;;;;;;17.95;3.92;;;28.20;80.70;;;;;;5064335;28;20021;-49
2021/05/15 05:14:55;;;;;;;13.13;3.38;;;28.20;81.10;;;;;;5064853;28;20032;-51
2021/05/15 05:17:21;;;;;;;18.40;3.53;;;28.20;81.00;;;;;;5064610;28;20055;-51
2021/05/15 05:19:48;;;;;;;15.82;3.92;;;28.20;80.70;;;;;;5064693;28;20032;-50
2021/05/15 05:22:15;;;;;;;18.63;3.85;;;28.20;80.60;;;;;;5064663;28;20280;-52
2021/05/15 05:24:44;;;;;;;13.60;3.83;;;28.10;80.70;;;;;;5064276;28;20101;-51
2021/05/15 05:27:11;;;;;;;14.63;3.92;;;28.10;80.90;;;;;;5064088;28;20032;-50
2021/05/15 05:29:38;;;;;;;16.75;4.57;;;28.10;80.60;;;;;;5064326;28;20367;-55
2021/05/15 05:32:10;;;;;;;15.50;5.25;;;28.10;80.70;;;;;;5064194;28;20067;-53
2021/05/15 05:34:38;;;;;;;28.70;10.65;;;28.10;80.90;;;;;;5064326;28;20055;-52
2021/05/15 05:37:05;;;;;;;32.25;11.63;;;28.10;80.90;;;;;;5045870;28;20336;-60
2021/05/15 05:39:32;;;;;;;23.10;8.25;;;28.10;81.10;;;;;;5064503;28;20272;-53
2021/05/15 05:42:00;;;;;;;23.60;11.65;;;28.10;81.10;;;;;;5063951;28;20025;-53
2021/05/15 05:44:27;;;;;;;29.45;8.85;;;28.10;81.70;;;;;;5064172;28;20029;-55
2021/05/15 05:46:53;;;;;;;18.55;6.80;;;28.10;81.20;;;;;;5064120;28;20028;-53
2021/05/15 05:49:20;;;;;;;25.25;6.88;;;28.10;81.40;;;;;;5064119;28;20031;-52
2021/05/15 05:51:47;;;;;;;17.17;5.40;;;28.10;81.50;;;;;;5063972;28;20313;-50
2021/05/15 05:54:14;;;;;;;15.13;5.50;;;28.10;81.60;;;;;;5064045;28;20024;-50
2021/05/15 05:56:40;;;;;;;24.42;6.32;;;28.10;81.80;;;;;;5063806;28;20060;-55
2021/05/15 05:59:07;;;;;;;22.98;4.63;;;28.10;81.90;;;;;;5064079;28;20029;-51
2021/05/15 06:01:34;;;;;;;14.20;4.45;;;28.10;82.00;;;;;;5063915;28;20036;-54
2021/05/15 06:04:01;;;;;;;24.10;5.22;;;28.10;82.20;;;;;;5063765;28;20033;-52
2021/05/15 06:06:28;;;;;;;14.15;4.60;;;28.10;82.00;;;;;;5063896;28;20025;-52
2021/05/15 06:08:56;;;;;;;13.93;4.38;;;28.10;81.90;;;;;;5063951;28;20024;-54
2021/05/15 06:11:24;;;;;;;17.42;4.13;;;28.10;81.80;;;;;;5063400;28;20328;-56
2021/05/15 06:13:50;;;;;;;20.58;4.20;;;28.10;81.90;;;;;;5063936;28;20048;-55
2021/05/15 06:16:17;;;;;;;18.02;5.07;;;28.10;82.00;;;;;;5063738;28;20013;-51
2021/05/15 06:18:44;;;;;;;18.52;4.40;;;28.00;81.90;;;;;;5063708;28;20044;-56
2021/05/15 06:21:10;;;;;;;20.52;4.88;;;28.00;81.90;;;;;;5063617;28;20021;-59
2021/05/15 06:23:37;;;;;;;16.90;3.85;;;28.00;82.00;;;;;;5063642;28;20029;-50
2021/05/15 06:26:10;;;;;;;9.82;3.60;;;28.00;81.90;;;;;;5063520;28;20017;-50
2021/05/15 06:28:38;;;;;;;14.95;3.85;;;28.00;82.00;;;;;;5063535;28;20309;-51
2021/05/15 06:31:05;;;;;;;14.60;4.20;;;28.00;81.90;;;;;;5063304;28;20210;-54
2021/05/15 06:33:32;;;;;;;18.38;4.13;;;28.00;82.10;;;;;;5063370;28;20037;-50
2021/05/15 06:36:00;;;;;;;19.85;4.32;;;28.00;82.00;;;;;;5063524;28;20028;-49
2021/05/15 06:38:27;;;;;;;13.27;4.10;;;28.00;82.00;;;;;;5063714;28;20020;-52
2021/05/15 06:40:53;;;;;;;16.90;4.22;;;28.00;82.10;;;;;;5063346;28;20021;-54
2021/05/15 06:43:20;;;;;;;14.80;4.10;;;27.90;82.00;;;;;;5063325;28;20017;-44
2021/05/15 06:45:46;;;;;;;12.90;3.78;;;27.90;82.10;;;;;;5063336;28;20023;-44
2021/05/15 06:48:13;;;;;;;23.52;4.55;;;27.90;82.00;;;;;;5064884;28;20021;-43
2021/05/15 06:50:40;;;;;;;18.52;4.40;;;27.90;82.10;;;;;;5067445;28;20044;-47
2021/05/15 06:53:07;;;;;;;15.10;4.20;;;28.00;81.80;;;;;;5067288;28;20009;-49
2021/05/15 06:55:33;;;;;;;14.95;4.10;;;27.90;81.80;;;;;;5067687;28;20056;-50
2021/05/15 06:58:04;;;;;;;13.45;3.95;;;27.90;81.60;;;;;;5067377;28;20313;-49
2021/05/15 07:00:32;;;;;;;18.27;4.28;;;27.90;81.40;;;;;;5049655;28;20025;-50
2021/05/15 07:02:58;;;;;;;17.13;4.43;;;27.90;81.30;;;;;;5066969;28;20221;-52
2021/05/15 07:05:25;;;;;;;14.98;3.70;;;27.90;81.00;;;;;;5067527;28;20029;-52
2021/05/15 07:07:52;;;;;;;17.48;4.60;;;27.90;81.00;;;;;;5067247;28;20186;-46
2021/05/15 07:10:19;;;;;;;15.23;4.47;;;27.90;80.90;;;;;;5067083;28;20055;-51
2021/05/15 07:12:45;;;;;;;14.45;3.60;;;27.90;80.50;;;;;;5066923;28;20017;-48
2021/05/15 07:15:12;;;;;;;18.10;4.07;;;27.90;80.10;;;;;;5066081;28;20021;-46
2021/05/15 07:17:39;;;;;;;14.35;4.50;;;27.80;79.90;;;;;;5066705;28;20088;-48
2021/05/15 07:20:07;;;;;;;19.30;3.65;;;27.90;79.90;;;;;;5067454;28;20021;-48
2021/05/15 07:22:33;;;;;;;14.25;3.50;;;27.80;79.70;;;;;;5066832;28;20017;-50
2021/05/15 07:25:00;;;;;;;16.08;3.72;;;27.80;79.40;;;;;;5067043;28;20080;-52
2021/05/15 07:27:29;;;;;;;16.48;4.22;;;27.80;79.70;;;;;;5066580;28;20029;-49
2021/05/15 07:29:56;;;;;;;22.05;4.30;;;27.80;79.60;;;;;;5066769;28;20049;-47
2021/05/15 07:32:24;;;;;;;17.25;3.75;;;27.80;79.70;;;;;;5066668;28;20021;-51
2021/05/15 07:34:51;;;;;;;15.50;3.55;;;27.80;79.60;;;;;;5066921;28;20029;-48
2021/05/15 07:37:18;;;;;;;13.38;3.53;;;27.80;79.40;;;;;;5066620;28;20028;-50
2021/05/15 07:39:45;;;;;;;15.95;3.08;;;27.80;79.50;;;;;;5066521;28;20048;-51
2021/05/15 07:42:12;;;;;;;18.17;3.80;;;27.70;79.50;;;;;;5066347;28;20036;-49
2021/05/15 07:44:39;;;;;;;15.25;3.97;;;27.70;79.50;;;;;;5066556;28;20079;-48
2021/05/15 07:47:06;;;;;;;14.13;3.33;;;27.70;79.90;;;;;;5066210;28;20041;-47
2021/05/15 07:49:33;;;;;;;17.40;3.58;;;27.70;80.30;;;;;;5066800;28;20343;-45
2021/05/15 07:52:00;;;;;;;13.35;3.53;;;27.70;80.40;;;;;;5066141;28;20045;-51
2021/05/15 07:54:26;;;;;;;11.05;3.47;;;27.70;80.50;;;;;;5066134;28;20056;-50
2021/05/15 07:56:54;;;;;;;13.55;3.28;;;27.70;80.70;;;;;;5066121;28;20049;-52
2021/05/15 07:59:21;;;;;;;14.18;4.05;;;27.60;80.90;;;;;;5065674;28;20083;-51
2021/05/15 08:01:48;;;;;;;15.25;4.05;;;27.60;81.20;;;;;;5065977;28;20097;-52
2021/05/15 08:04:15;;;;;;;14.70;3.72;;;27.60;81.20;;;;;;5066537;28;20032;-44
2021/05/15 08:06:42;;;;;;;17.08;3.67;;;27.60;81.20;;;;;;5066019;28;20021;-50
2021/05/15 08:09:09;;;;;;;19.25;3.50;;;27.60;81.10;;;;;;5066065;28;20052;-43
2021/05/15 08:11:36;;;;;;;13.30;4.03;;;27.60;81.20;;;;;;5065658;28;20033;-48
2021/05/15 08:14:06;;;;;;;13.93;3.58;;;27.60;81.10;;;;;;5066035;28;20032;-52
2021/05/15 08:16:34;;;;;;;11.38;3.78;;;27.60;81.30;;;;;;5065801;28;20027;-53
2021/05/15 08:19:01;;;;;;;17.33;3.67;;;27.60;81.40;;;;;;5066130;28;20051;-50
2021/05/15 08:21:31;;;;;;;13.18;3.50;;;27.60;81.50;;;;;;5065734;28;20021;-48
2021/05/15 08:23:58;;;;;;;14.48;3.55;;;27.50;81.80;;;;;;5065555;28;20182;-54
2021/05/15 08:26:27;;;;;;;16.30;4.10;;;27.50;81.70;;;;;;5065729;28;20025;-46
2021/05/15 08:28:54;;;;;;;10.32;3.40;;;27.50;81.80;;;;;;5065369;28;20033;-53
2021/05/15 08:31:21;;;;;;;13.68;3.92;;;27.50;81.90;;;;;;5065210;28;20070;-58
2021/05/15 08:33:48;;;;;;;10.77;3.15;;;27.50;82.00;;;;;;5065557;28;20028;-56
2021/05/15 08:36:15;;;;;;;17.73;4.00;;;27.50;82.10;;;;;;5065487;28;20019;-51
2021/05/15 08:38:42;;;;;;;13.43;4.00;;;27.40;82.20;;;;;;5065303;28;20037;-49
2021/05/15 08:41:09;;;;;;;10.73;3.90;;;27.40;82.60;;;;;;5065246;28;20024;-54
2021/05/15 08:43:41;;;;;;;13.85;4.32;;;27.40;82.70;;;;;;5065284;28;20036;-44
2021/05/15 08:46:15;;;;;;;14.32;3.60;;;27.40;82.90;;;;;;5065061;28;20092;-47
2021/05/15 08:48:43;;;;;;;14.68;3.70;;;27.40;82.90;;;;;;5065361;28;20044;-45
2021/05/15 08:51:11;;;;;;;12.23;4.03;;;27.30;82.90;;;;;;5065129;28;20119;-49
2021/05/15 08:53:40;;;;;;;15.95;5.53;;;27.30;83.20;;;;;;5065033;28;20017;-55
2021/05/15 08:56:09;;;;;;;25.88;11.30;;;27.30;83.00;;;;;;5064978;28;20027;-43
2021/05/15 08:58:39;;;;;;;24.50;12.07;;;27.30;83.10;;;;;;5065035;28;20028;-57
2021/05/15 09:01:10;;;;;;;29.55;12.23;;;27.30;83.00;;;;;;5047155;28;20136;-45
2021/05/15 09:03:37;;;;;;;25.00;11.70;;;27.30;83.20;;;;;;5064854;28;20037;-46
2021/05/15 09:06:04;;;;;;;20.02;10.70;;;27.30;83.20;;;;;;5064794;28;20063;-42
2021/05/15 09:08:30;;;;;;;18.48;9.90;;;27.30;83.20;;;;;;5064872;28;20021;-47
2021/05/15 09:10:57;;;;;;;20.63;9.20;;;27.30;83.00;;;;;;5063864;28;20021;-52
2021/05/15 09:13:26;;;;;;;21.15;9.35;;;27.30;82.90;;;;;;5064262;28;20051;-54
2021/05/15 09:15:55;;;;;;;25.67;8.32;;;27.30;83.20;;;;;;5046854;28;20025;-51
2021/05/15 09:18:24;;;;;;;17.05;7.97;;;27.30;83.40;;;;;;5064500;28;20028;-48
2021/05/15 09:20:53;;;;;;;17.27;5.68;;;27.30;83.30;;;;;;5064460;28;20024;-44
2021/05/15 09:23:25;;;;;;;20.58;5.53;;;27.30;83.20;;;;;;5064457;28;20021;-43
2021/05/15 09:26:05;;;;;;;14.82;5.13;;;27.30;83.00;;;;;;5064515;28;20044;-44
2021/05/15 09:28:33;;;;;;;14.43;4.10;;;27.20;83.00;;;;;;5064331;28;20045;-52
2021/05/15 09:31:18;;;;;;;15.75;4.25;;;27.20;82.70;;;;;;5064234;28;20045;-55
2021/05/15 09:33:55;;;;;;;13.98;3.70;;;27.20;82.70;;;;;;5064379;28;20025;-45
2021/05/15 09:36:30;;;;;;;17.92;3.53;;;27.20;82.70;;;;;;5064345;28;20059;-50
2021/05/15 09:39:18;;;;;;;17.20;4.45;;;27.20;82.60;;;;;;5064086;28;20116;-50
2021/05/15 09:41:51;;;;;;;12.60;3.65;;;27.20;82.50;;;;;;5064110;28;20060;-44
2021/05/15 09:44:21;;;;;;;12.55;3.50;;;27.20;82.50;;;;;;5064451;28;20331;-49
2021/05/15 09:46:48;;;;;;;11.02;3.42;;;27.30;82.70;;;;;;5064293;28;20028;-46
2021/05/15 09:49:17;;;;;;;17.08;3.58;;;27.20;82.60;;;;;;5064210;28;20063;-46
2021/05/15 09:52:02;;;;;;;13.05;4.03;;;27.20;82.60;;;;;;5064027;28;20067;-43
2021/05/15 09:54:32;;;;;;;15.82;3.78;;;27.20;82.70;;;;;;5064097;28;20021;-47
2021/05/15 09:57:10;;;;;;;11.60;3.20;;;27.20;82.90;;;;;;5064102;28;20040;-48
2021/05/15 09:59:45;;;;;;;12.65;2.78;;;27.20;82.80;;;;;;5064166;28;20174;-47
2021/05/15 10:02:14;;;;;;;9.65;2.92;;;27.20;83.10;;;;;;5063932;28;20025;-45
2021/05/15 10:04:50;;;;;;;10.65;3.13;;;27.20;83.20;;;;;;5064231;28;20025;-46
2021/05/15 10:07:30;;;;;;;14.07;3.25;;;27.20;83.10;;;;;;5063655;28;20381;-44
2021/05/15 10:10:01;;;;;;;15.27;3.90;;;27.20;83.40;;;;;;5064140;28;20241;-48
2021/05/15 10:12:27;;;;;;;14.40;3.80;;;27.20;83.10;;;;;;5063428;28;20029;-45
2021/05/15 10:14:54;;;;;;;12.07;3.35;;;27.20;83.40;;;;;;5064143;28;20036;-48
2021/05/15 10:17:21;;;;;;;13.07;3.60;;;27.20;83.30;;;;;;5063780;28;20327;-46
2021/05/15 10:19:48;;;;;;;14.10;4.00;;;27.10;83.30;;;;;;5063957;28;20025;-53
2021/05/15 10:22:15;;;;;;;16.25;4.25;;;27.10;83.40;;;;;;5063495;28;20048;-48
2021/05/15 10:24:47;;;;;;;15.65;4.53;;;27.10;83.40;;;;;;5064099;28;20088;-52
2021/05/15 10:27:15;;;;;;;16.90;4.60;;;27.10;83.70;;;;;;5063490;28;20025;-44
2021/05/15 10:29:42;;;;;;;15.20;4.55;;;27.10;83.80;;;;;;5063566;28;20048;-44
2021/05/15 10:32:15;;;;;;;11.70;3.72;;;27.10;84.10;;;;;;5063385;28;20044;-45
2021/05/15 10:34:45;;;;;;;17.77;5.07;;;27.10;84.40;;;;;;5063765;28;20021;-47
2021/05/15 10:37:20;;;;;;;12.35;4.40;;;27.10;84.40;;;;;;5063867;28;20084;-49
2021/05/15 10:39:49;;;;;;;14.30;4.15;;;27.00;84.20;;;;;;5063573;28;20053;-48
2021/05/15 10:42:27;;;;;;;15.45;4.10;;;27.00;84.30;;;;;;5063420;28;20088;-52
2021/05/15 10:44:54;;;;;;;13.43;5.10;;;27.00;84.30;;;;;;5063764;28;20035;-48
2021/05/15 10:47:22;;;;;;;15.70;4.60;;;27.00;84.20;;;;;;5063407;28;20021;-52
2021/05/15 10:49:50;;;;;;;11.65;4.32;;;27.00;84.30;;;;;;5063649;28;20052;-45
2021/05/15 10:52:18;;;;;;;19.33;4.35;;;27.00;84.30;;;;;;5063373;28;20021;-49
2021/05/15 10:55:08;;;;;;;24.95;5.47;;;27.00;84.70;;;;;;5063678;28;20033;-50
2021/05/15 10:57:35;;;;;;;16.63;4.72;;;27.00;84.90;;;;;;5063215;28;20067;-47
2021/05/15 11:00:07;;;;;;;15.27;4.75;;;27.00;85.60;;;;;;5063840;28;20032;-46
2021/05/15 11:02:37;;;;;;;14.87;4.60;;;27.00;84.80;;;;;;5063400;28;20277;-46
2021/05/15 11:05:12;;;;;;;15.85;5.47;;;27.00;85.30;;;;;;5063431;28;20279;-48
2021/05/15 11:07:40;;;;;;;111.60;13.98;;;27.10;84.90;;;;;;5063321;28;20013;-46
2021/05/15 11:10:16;;;;;;;31.65;7.10;;;27.10;84.60;;;;;;5063625;28;20244;-46
2021/05/15 11:12:53;;;;;;;29.75;6.30;;;27.20;84.80;;;;;;5063104;28;20066;-56
2021/05/15 11:15:22;;;;;;;17.70;5.50;;;27.30;84.50;;;;;;5063517;28;20029;-55
2021/05/15 11:18:03;;;;;;;24.58;5.00;;;27.40;83.20;;;;;;5063192;28;20025;-52
2021/05/15 11:20:44;;;;;;;48.67;7.25;;;27.50;83.00;;;;;;5064457;28;20068;-51
2021/05/15 11:23:19;;;;;;;20.77;5.05;;;27.70;82.60;;;;;;5063329;28;20024;-58
2021/05/15 11:26:07;;;;;;;19.40;5.20;;;27.80;81.90;;;;;;5063283;28;20276;-57
2021/05/15 11:28:34;;;;;;;13.23;4.80;;;27.90;81.70;;;;;;5063748;28;20051;-54
2021/05/15 11:31:09;;;;;;;16.45;4.30;;;28.00;81.70;;;;;;5063046;28;20242;-53
2021/05/15 11:33:36;;;;;;;16.35;4.22;;;28.00;82.10;;;;;;5062910;28;20254;-49
2021/05/15 11:36:03;;;;;;;14.80;4.50;;;28.10;82.00;;;;;;5065665;28;20020;-51
2021/05/15 11:38:31;;;;;;;14.57;3.72;;;28.20;81.70;;;;;;5066594;28;20023;-53
2021/05/15 11:41:04;;;;;;;21.00;4.38;;;28.40;80.90;;;;;;5066337;28;20028;-57
2021/05/15 11:43:34;;;;;;;;;;;28.60;80.20;;;;;;5066928;28;20027;-52
2021/05/15 11:46:06;;;;;;;12.30;4.85;;;28.70;79.70;;;;;;5066210;28;19901;-58
2021/05/15 11:48:35;;;;;;;19.02;6.00;;;28.90;79.20;;;;;;5066400;28;20075;-55
2021/05/15 11:51:12;;;;;;;13.05;4.45;;;28.90;79.10;;;;;;5066128;28;20257;-56
2021/05/15 11:53:39;;;;;;;19.88;5.28;;;28.90;79.30;;;;;;5066079;28;20021;-53
2021/05/15 11:56:13;;;;;;;16.08;4.47;;;28.80;79.60;;;;;;5066158;28;20190;-52
2021/05/15 11:58:54;;;;;;;12.95;4.65;;;28.70;79.80;;;;;;5066003;28;20024;-55
2021/05/15 12:01:35;;;;;;;14.30;4.00;;;28.70;80.00;;;;;;5066024;28;20017;-56
2021/05/15 12:04:20;;;;;;;14.50;4.68;;;28.70;80.10;;;;;;5066104;28;20305;-52
2021/05/15 12:06:51;;;;;;;16.20;4.50;;;28.80;80.20;;;;;;5065929;28;20309;-53
2021/05/15 12:09:18;;;;;;;15.85;4.57;;;28.80;80.20;;;;;;5065898;28;20028;-52
2021/05/15 12:11:46;;;;;;;15.57;4.10;;;28.80;80.10;;;;;;5065697;28;20029;-52
2021/05/15 12:14:13;;;;;;;12.60;3.95;;;28.80;80.20;;;;;;5066047;28;20266;-51
2021/05/15 12:16:40;;;;;;;13.73;4.13;;;28.90;80.10;;;;;;5065469;28;20266;-54
2021/05/15 12:19:21;;;;;;;13.77;3.75;;;28.90;80.10;;;;;;5065939;28;20025;-58
2021/05/15 12:22:14;;;;;;;13.60;4.30;;;28.90;80.10;;;;;;5065656;28;20021;-59
2021/05/15 12:24:44;;;;;;;15.38;4.53;;;29.00;80.20;;;;;;5063402;28;20206;-56
2021/05/15 12:27:15;;;;;;;15.07;3.90;;;29.00;80.50;;;;;;5047785;28;20024;-59
2021/05/15 12:29:44;;;;;;;15.87;4.00;;;29.10;80.40;;;;;;5064467;28;20067;-56
2021/05/15 12:32:11;;;;;;;10.55;3.55;;;29.10;80.40;;;;;;5065377;28;20039;-54
2021/05/15 12:34:40;;;;;;;13.10;3.67;;;29.10;80.30;;;;;;5065355;28;20048;-53
2021/05/15 12:37:18;;;;;;;14.48;4.03;;;29.20;80.40;;;;;;5065391;28;20016;-56
2021/05/15 12:39:46;;;;;;;12.60;3.78;;;29.20;80.50;;;;;;5065338;28;20025;-55
2021/05/15 12:42:16;;;;;;;13.80;3.78;;;29.20;80.60;;;;;;5064207;28;20048;-54
2021/05/15 12:44:44;;;;;;;12.75;3.67;;;29.20;80.60;;;;;;5065631;28;20071;-52
2021/05/15 12:47:10;;;;;;;17.83;3.90;;;29.20;80.60;;;;;;5064935;28;20313;-55